Mangilao, GU

1:56 PM ChST on September 02, 2014 (GMT +1000)
Guam International | Change Station
CLOSE
Current Station
Airport
Location: Guam Agana,
Elevation: 269 ft
Nearby Weather Stations

Elev 269 ft 13.48 °N, 144.80 °E | Updated 2 minutes ago

Thunderstorm
Thunderstorm
87 °F
Feels Like 98 °F
N
12
Wind Variable Wind from WSW

Today
High -- | Low -- °F
--% Chance of Precip.
Yesterday
High -- | Low -- °F
Precip. -- in
6:09 AM 6:31 PM
Waxing Crescent, 47% visible
Pressure 29.75 in
Visibility 10.0 miles
Clouds Scattered Clouds 200 ft
Mostly Cloudy 4900 ft
Heat Index 98 °F
Dew Point 77 °F
Humidity 71%
Rainfall 0.00 in
Snow Depth Not available.
UV 8 out of 12
Pollen Not available.
Air Quality Not available.
Flu Activity Not available.
METAR PGUM 020354Z 25010KT 10SM TS SCT002CB BKN049 31/25 A2977 RMK AO2 TSB51 SLP073 TS E MOV NE T03060248 $

More Conditions Fewer Conditions

Pressure 29.75 in
Visibility 10.0 miles
Clouds Scattered Clouds 200 ft
Mostly Cloudy 4900 ft
Heat Index 98 °F
Dew Point 77 °F
Humidity 71%
Rainfall 0.00 in
Snow Depth Not available.
UV 8 out of 12
Pollen Not available.
Air Quality Not available.
Flu Activity Not available.
METAR PGUM 020354Z 25010KT 10SM TS SCT002CB BKN049 31/25 A2977 RMK AO2 TSB51 SLP073 TS E MOV NE T03060248 $

More Conditions Fewer Conditions

10-Day Weather Forecast

Almanac

Astronomy

Sep. 02, 2014 Rise Set
Actual Time 6:09 AM ChST 6:31 PM ChST
Civil Twilight 5:47 AM ChST 6:53 PM ChST
Nautical Twilight 5:22 AM ChST 7:18 PM ChST
Astronomical Twilight 4:57 AM ChST 7:43 PM ChST
Moon 12:09 PM ChST 11:58 PM ChST
Length of Visible Light 13h 05m
Length of Day
12h 22m
Tomorrow will be 0m 43s shorter.
Waxing Crescent, 47% of the Moon is Illuminated
Sep 1
Waxing Crescent
Sep 2
First Quarter
Sep 8
Full
Sep 15
Last Quarter
Sep 24
New

Community

WunderPhotos

Upload Photos

1,749,557 photos uploaded!

WunderBlogs® & News

Nearby

Snow Depth

Station Depth Elevation
No new snow has been reported.

Earthquake Activity

City Distance Mag. Time & Date
No recent earthquake activity has been reported nearby.
Minimum magnitude displayed is 2.5.

Coastal Water Temperatures

Place Temperature
No Stations Reporting

Nearby Weather Stations